KDIJ

Driggs-Reed Memorial Airport

Driggs, Idaho, USA
KDIJ 121720Z 1218/1318 27010KT 2SM -SN OVC020 FM121900 30011KT 6SM -SN OVC030 FM130100 14006KT P6SM SCT040 FM131000 16006KT P6SM OVC020 AMD LTD TO CLD VIS AND WIND
Issued Valid From Valid To
Dec-12 @ 17:20 UTC
(4 hours ago)
Dec-12 @ 18:00 UTC
(3 hours ago)
Dec-13 @ 18:00 UTC
(in 21 hours)
Expired Click to View Dec-12 @ 18:00 to Dec-12 @ 19:00
KDIJ 121720Z 1218/1318 27010KT 2SM -SN OVC020
Wind Visibility Clouds Conditions
270° at 10 knots 2 miles
  • Overcast at 2,000' AGL
  • Light Snow
From Dec-12 @ 19:00 to Dec-13 @ 01:00
FM121900 30011KT 6SM -SN OVC030
Wind Visibility Clouds Conditions
300° at 11 knots 6 miles
  • Overcast at 3,000' AGL
  • Light Snow
From Dec-13 @ 01:00 to Dec-13 @ 10:00
FM130100 14006KT P6SM SCT040
Wind Visibility Clouds
140° at 6 knots Greater than 6 miles
  • Scattered at 4,000' AGL
From Dec-13 @ 10:00 to Dec-13 @ 18:00
FM131000 16006KT P6SM OVC020 AMD LTD TO CLD VIS AND WIND
Wind Visibility Clouds
160° at 6 knots Greater than 6 miles
  • Overcast at 2,000' AGL
KDIJ 121720Z 1218/1318 27010KT 2SM -SN OVC020 FM121900 30011KT 6SM -SN OVC030 FM130100 14006KT P6SM SCT040 FM131000 16006KT P6SM OVC020 AMD LTD TO CLD VIS AND WIND
Issued Dec-12 @ 17:20 UTC
(4 hours ago)
Valid From Dec-12 @ 18:00 UTC
(3 hours ago)
Valid To Dec-13 @ 18:00 UTC
(in 21 hours)
Dec-12 @ 18:00 - Dec-12 @ 19:00
Wind Visibility
270° at 10 knots 2 miles
Clouds
  • Overcast at 2,000' AGL
Conditions
  • Light Snow
From Dec-12 @ 19:00 - Dec-13 @ 01:00
Wind Visibility
300° at 11 knots 6 miles
Clouds
  • Overcast at 3,000' AGL
Conditions
  • Light Snow
From Dec-13 @ 01:00 - Dec-13 @ 10:00
Wind Visibility
140° at 6 knots Greater than 6 miles
Clouds
  • Scattered at 4,000' AGL
From Dec-13 @ 10:00 - Dec-13 @ 18:00
Wind Visibility
160° at 6 knots Greater than 6 miles
Clouds
  • Overcast at 2,000' AGL